Time;durP1;ratioP1;P1;durP2;ratioP2;P2;SDS_P1;SDS_P2;PMS_P1;PMS_P2;Temp;Humidity;BMP_temperature;BMP_pressure;BME280_temperature;BME280_humidity;BME280_pressure;Samples;Min_cycle;Max_cycle;Signal;HPM_P1;HPM_P2
2020/12/31 00:01:53;;;;;;;1999.90;999.90;;;4.50;99.90;;;;;;5021811;28;20193;-81
2020/12/31 00:04:21;;;;;;;1999.90;999.90;;;4.50;99.90;;;;;;5039763;28;20184;-81
2020/12/31 00:06:47;;;;;;;1999.90;999.90;;;4.50;99.90;;;;;;5039780;28;20528;-81
2020/12/31 00:09:16;;;;;;;1999.90;999.90;;;4.40;99.90;;;;;;5039679;28;20169;-80
2020/12/31 00:11:55;;;;;;;1999.90;999.90;;;4.30;99.90;;;;;;5040520;28;20902;-81
2020/12/31 00:14:24;;;;;;;1999.90;999.90;;;4.30;99.90;;;;;;5040493;28;20195;-81
2020/12/31 00:16:52;;;;;;;1999.90;999.90;;;4.30;99.90;;;;;;5040006;28;20165;-81
2020/12/31 00:19:18;;;;;;;1999.90;999.90;;;4.30;99.90;;;;;;5040526;28;20698;-81
2020/12/31 00:21:53;;;;;;;1999.90;999.90;;;4.30;99.90;;;;;;5021660;28;20209;-80
2020/12/31 00:24:30;;;;;;;1999.90;999.90;;;4.20;99.90;;;;;;5039976;28;20639;-81
2020/12/31 00:27:11;;;;;;;1999.90;999.90;;;4.20;99.90;;;;;;5021941;28;20200;-81
2020/12/31 00:29:42;;;;;;;1999.90;999.90;;;4.20;99.90;;;;;;5039487;28;20142;-81
2020/12/31 00:32:08;;;;;;;1999.90;999.90;;;4.20;99.90;;;;;;5040329;28;20215;-81
2020/12/31 00:34:34;;;;;;;1999.90;999.90;;;4.20;99.90;;;;;;5039638;28;20539;-81
2020/12/31 00:37:02;;;;;;;1999.90;999.90;;;4.20;99.90;;;;;;5021757;28;20408;-81
2020/12/31 00:39:29;;;;;;;1999.90;999.90;;;4.20;99.90;;;;;;5039331;28;20408;-80
2020/12/31 00:42:15;;;;;;;1999.90;999.90;;;4.20;99.90;;;;;;5039629;28;20237;-81
2020/12/31 00:44:41;;;;;;;1999.90;999.90;;;4.20;99.90;;;;;;5022045;28;20173;-80
2020/12/31 00:47:07;;;;;;;1999.90;999.90;;;4.30;99.90;;;;;;5039170;28;20187;-81
2020/12/31 00:49:36;;;;;;;1999.90;999.90;;;4.30;99.90;;;;;;5039767;28;20208;-80
2020/12/31 00:52:11;;;;;;;1999.90;999.90;;;4.30;99.90;;;;;;5039457;28;20415;-81
2020/12/31 00:54:37;;;;;;;1999.90;999.90;;;4.30;99.90;;;;;;5022683;28;20160;-81
2020/12/31 00:57:08;;;;;;;1999.90;999.90;;;4.20;99.90;;;;;;5038858;28;20173;-81
2020/12/31 00:59:43;;;;;;;1999.90;999.90;;;4.20;99.90;;;;;;5021946;28;20161;-81
2020/12/31 01:02:09;;;;;;;1999.90;999.90;;;4.20;99.90;;;;;;5021305;28;20663;-81
2020/12/31 01:04:38;;;;;;;1999.90;999.90;;;4.20;99.90;;;;;;5039085;28;20172;-80
2020/12/31 01:07:04;;;;;;;1999.90;999.90;;;4.20;99.90;;;;;;5038857;28;20248;-80
2020/12/31 01:09:30;;;;;;;1999.90;999.90;;;4.10;99.90;;;;;;5021364;28;20211;-81
2020/12/31 01:11:56;;;;;;;1999.90;999.90;;;4.20;99.90;;;;;;5038587;28;20628;-81
2020/12/31 01:14:22;;;;;;;1999.90;999.90;;;4.20;99.90;;;;;;5038722;28;20157;-81
2020/12/31 01:16:49;;;;;;;1999.90;999.90;;;4.20;99.90;;;;;;5021161;28;20168;-81
2020/12/31 01:19:18;;;;;;;1999.90;999.90;;;4.20;99.90;;;;;;5039054;28;20218;-81
2020/12/31 01:21:45;;;;;;;1999.90;999.90;;;4.30;99.90;;;;;;5121186;22;20585;-86
2020/12/31 01:24:11;;;;;;;1999.90;999.90;;;4.30;99.90;;;;;;5079379;28;20188;-84
2020/12/31 01:26:37;;;;;;;1999.90;999.90;;;4.30;99.90;;;;;;5061604;28;20259;-84
2020/12/31 01:29:03;;;;;;;1999.90;999.90;;;4.30;99.90;;;;;;5079149;28;20187;-83
2020/12/31 01:31:29;;;;;;;1999.90;999.90;;;4.30;99.90;;;;;;5061157;28;20402;-84
2020/12/31 01:33:55;;;;;;;1999.90;999.90;;;4.30;99.90;;;;;;5061532;28;20238;-84
2020/12/31 01:36:21;;;;;;;1999.90;999.90;;;4.30;99.90;;;;;;5079642;28;20223;-84
2020/12/31 01:38:47;;;;;;;1999.90;999.90;;;4.40;99.90;;;;;;5080143;28;20233;-84
2020/12/31 01:41:14;;;;;;;1999.90;999.90;;;4.40;99.90;;;;;;5079049;28;21007;-84
2020/12/31 01:43:39;;;;;;;1999.90;999.90;;;4.40;99.90;;;;;;5079344;28;20213;-85
2020/12/31 01:46:11;;;;;;;1999.90;999.90;;;4.40;99.90;;;;;;5061486;28;20163;-83
2020/12/31 01:48:38;;;;;;;1999.90;999.90;;;4.30;99.90;;;;;;5061225;28;20160;-84
2020/12/31 01:51:04;;;;;;;1999.90;999.90;;;4.30;99.90;;;;;;5079538;28;20504;-84
2020/12/31 01:53:30;;;;;;;1999.90;999.90;;;4.30;99.90;;;;;;5079519;28;20193;-84
2020/12/31 01:55:58;;;;;;;1999.90;999.90;;;4.30;99.90;;;;;;5080046;28;20511;-84
2020/12/31 01:58:24;;;;;;;1999.90;999.90;;;4.30;99.90;;;;;;5079604;28;20425;-84
2020/12/31 02:00:50;;;;;;;1999.90;999.90;;;4.30;99.90;;;;;;5079545;28;20164;-83
2020/12/31 02:03:16;;;;;;;1999.90;999.90;;;4.40;99.90;;;;;;5061406;28;20171;-84
2020/12/31 02:05:44;;;;;;;1999.90;999.90;;;4.40;99.90;;;;;;5082375;28;20526;-84
2020/12/31 02:08:10;;;;;;;1999.90;999.90;;;4.40;99.90;;;;;;5082431;28;20183;-84
2020/12/31 02:10:35;;;;;;;1999.90;999.90;;;4.40;99.90;;;;;;5083176;28;20198;-84
2020/12/31 02:13:01;;;;;;;1999.90;999.90;;;4.40;99.90;;;;;;5081685;28;20190;-84
2020/12/31 02:15:27;;;;;;;1999.90;999.90;;;4.40;99.90;;;;;;5082439;28;20201;-84
2020/12/31 02:17:52;;;;;;;1999.90;999.90;;;4.50;99.90;;;;;;5063912;28;20175;-84
2020/12/31 02:20:18;;;;;;;1999.90;999.90;;;4.40;99.90;;;;;;5082371;28;20168;-84
2020/12/31 02:22:44;;;;;;;1999.90;999.90;;;4.40;99.90;;;;;;5063704;28;20566;-83
2020/12/31 02:25:10;;;;;;;1999.90;999.90;;;4.40;99.90;;;;;;5081526;28;20160;-83
2020/12/31 02:27:35;;;;;;;1999.90;999.90;;;4.40;99.90;;;;;;5081916;28;20413;-84
2020/12/31 02:30:01;;;;;;;1999.90;999.90;;;4.40;99.90;;;;;;5081488;28;20243;-83
2020/12/31 02:32:27;;;;;;;1999.90;999.90;;;4.30;99.90;;;;;;5063724;28;20172;-83
2020/12/31 02:34:52;;;;;;;1999.90;999.90;;;4.30;99.90;;;;;;5063229;28;20533;-82
2020/12/31 02:37:18;;;;;;;1999.90;999.90;;;4.40;99.90;;;;;;5081663;28;20657;-82
2020/12/31 02:39:43;;;;;;;1999.90;999.90;;;4.40;99.90;;;;;;5081313;28;20172;-83
2020/12/31 02:42:09;;;;;;;1999.90;999.90;;;4.30;99.90;;;;;;5081084;28;20187;-82
2020/12/31 02:44:35;;;;;;;1999.90;999.90;;;4.30;99.90;;;;;;5080791;28;20638;-83
2020/12/31 02:47:00;;;;;;;1999.90;999.90;;;4.30;99.90;;;;;;5081311;28;20165;-82
2020/12/31 02:49:26;;;;;;;1999.90;999.90;;;4.40;99.90;;;;;;5080979;28;20168;-82
2020/12/31 02:51:55;;;;;;;1999.90;999.90;;;4.30;99.90;;;;;;5062715;28;20180;-82
2020/12/31 02:54:20;;;;;;;1999.90;999.90;;;4.30;99.90;;;;;;5081147;28;20164;-82
2020/12/31 02:56:49;;;;;;;1999.90;999.90;;;4.30;99.90;;;;;;5080846;28;20168;-82
2020/12/31 02:59:14;;;;;;;1999.90;999.90;;;4.30;99.90;;;;;;5062656;28;20178;-82
2020/12/31 03:01:40;;;;;;;1999.90;999.90;;;4.30;99.90;;;;;;5080684;28;20215;-82
2020/12/31 03:04:06;;;;;;;1999.90;999.90;;;4.30;99.90;;;;;;5080924;28;20168;-82
2020/12/31 03:07:07;;;;;;;1999.90;999.90;;;4.30;99.90;;;;;;5080676;28;20164;-82
2020/12/31 03:09:33;;;;;;;1999.90;999.90;;;4.30;99.90;;;;;;5080745;28;20140;-81
2020/12/31 03:11:59;;;;;;;1999.90;999.90;;;4.30;99.90;;;;;;5080944;28;20164;-82
2020/12/31 03:14:24;;;;;;;1999.90;999.90;;;4.20;99.90;;;;;;5080616;28;20225;-82
2020/12/31 03:16:50;;;;;;;1999.90;999.90;;;4.20;99.90;;;;;;5080414;28;20164;-82
2020/12/31 03:19:15;;;;;;;1999.90;999.90;;;4.30;99.90;;;;;;5080111;28;20258;-81
2020/12/31 03:21:41;;;;;;;1999.90;999.90;;;4.30;99.90;;;;;;5080075;28;20207;-81
2020/12/31 03:24:07;;;;;;;1999.90;999.90;;;4.30;99.90;;;;;;5062201;28;20168;-81
2020/12/31 03:26:32;;;;;;;1999.90;999.90;;;4.30;99.90;;;;;;5062369;28;20190;-81
2020/12/31 03:28:58;;;;;;;1999.90;999.90;;;4.30;99.90;;;;;;5080258;28;20191;-81
2020/12/31 03:31:24;;;;;;;1999.90;999.90;;;4.30;99.90;;;;;;5079875;28;20194;-81
2020/12/31 03:33:49;;;;;;;1999.90;999.90;;;4.30;99.90;;;;;;5079574;28;20171;-81
2020/12/31 03:36:15;;;;;;;1999.90;999.90;;;4.40;99.90;;;;;;5079800;28;20164;-81
2020/12/31 03:38:40;;;;;;;1999.90;999.90;;;4.40;99.90;;;;;;5062478;28;20172;-81
2020/12/31 03:41:06;;;;;;;1999.90;999.90;;;4.30;99.90;;;;;;5062320;28;20203;-81
2020/12/31 03:43:32;;;;;;;1999.90;999.90;;;4.30;99.90;;;;;;5080426;28;20576;-81
2020/12/31 03:45:57;;;;;;;1999.90;999.90;;;4.30;99.90;;;;;;5061941;28;20164;-81
2020/12/31 03:48:23;;;;;;;1999.90;999.90;;;4.30;99.90;;;;;;5062275;28;20685;-81
2020/12/31 03:50:49;;;;;;;1999.90;999.90;;;4.20;99.90;;;;;;5061384;28;20190;-81
2020/12/31 03:53:14;;;;;;;1999.90;999.90;;;4.20;99.90;;;;;;5079342;28;20172;-81
2020/12/31 03:55:40;;;;;;;1999.90;999.90;;;4.20;99.90;;;;;;5079761;28;20164;-81
2020/12/31 03:58:06;;;;;;;1999.90;999.90;;;4.30;99.90;;;;;;5079202;28;20175;-81
2020/12/31 04:00:31;;;;;;;1999.90;999.90;;;4.30;99.90;;;;;;5061570;28;20217;-81
2020/12/31 04:02:57;;;;;;;1999.90;999.90;;;4.30;99.90;;;;;;5078980;28;20195;-81
2020/12/31 04:05:23;;;;;;;1999.90;999.90;;;4.30;99.90;;;;;;5079201;28;20409;-81
2020/12/31 04:07:48;;;;;;;1999.90;999.90;;;4.20;99.90;;;;;;5079493;28;20171;-81
2020/12/31 04:10:14;;;;;;;1999.90;999.90;;;4.30;99.90;;;;;;5080022;28;20170;-81
2020/12/31 04:12:40;;;;;;;1999.90;999.90;;;4.30;99.90;;;;;;5079358;28;20171;-81
2020/12/31 04:15:05;;;;;;;1999.90;999.90;;;4.30;99.90;;;;;;5061219;28;20203;-81
2020/12/31 04:17:31;;;;;;;1999.90;999.90;;;4.30;99.90;;;;;;5079318;28;20168;-81
2020/12/31 04:19:56;;;;;;;1999.90;999.90;;;4.40;99.90;;;;;;5078991;28;20650;-81
2020/12/31 04:22:22;;;;;;;1999.90;999.90;;;4.40;99.90;;;;;;5078555;28;20239;-81
2020/12/31 04:24:49;;;;;;;1999.90;999.90;;;4.30;99.90;;;;;;5079250;28;20164;-81
2020/12/31 04:27:15;;;;;;;1999.90;999.90;;;4.30;99.90;;;;;;5078211;28;20179;-81
2020/12/31 04:29:41;;;;;;;1999.90;999.90;;;4.30;99.90;;;;;;5078873;28;20164;-81
2020/12/31 04:32:06;;;;;;;1999.90;999.90;;;4.30;99.90;;;;;;5060928;28;20171;-80
2020/12/31 04:34:32;;;;;;;1999.90;999.90;;;4.30;99.90;;;;;;5079039;28;20160;-80
2020/12/31 04:36:57;;;;;;;1999.90;999.90;;;4.30;99.90;;;;;;5078989;28;20170;-81
2020/12/31 04:39:23;;;;;;;1999.90;999.90;;;4.20;99.90;;;;;;5061209;28;20191;-81
2020/12/31 04:41:49;;;;;;;1999.90;999.90;;;4.20;99.90;;;;;;5079070;28;20237;-81
2020/12/31 04:44:16;;;;;;;1999.90;999.90;;;4.30;99.90;;;;;;5078941;28;20171;-81
2020/12/31 04:46:45;;;;;;;1999.90;999.90;;;4.30;99.90;;;;;;5078644;28;20235;-81
2020/12/31 04:49:24;;;;;;;1999.90;999.90;;;4.30;99.90;;;;;;5078506;28;20164;-81
2020/12/31 04:51:54;;;;;;;1999.90;999.90;;;4.30;99.90;;;;;;5078135;28;20175;-81
2020/12/31 04:54:20;;;;;;;1999.90;999.90;;;4.30;99.90;;;;;;5078698;28;20160;-81
2020/12/31 04:56:46;;;;;;;1999.90;999.90;;;4.40;99.90;;;;;;5079149;28;20519;-81
2020/12/31 04:59:12;;;;;;;1999.90;999.90;;;4.30;99.90;;;;;;5078800;28;20168;-81
2020/12/31 05:01:41;;;;;;;1999.90;999.90;;;4.30;99.90;;;;;;5077901;28;20202;-81
2020/12/31 05:04:07;;;;;;;1999.90;999.90;;;4.30;99.90;;;;;;5078178;28;20164;-81
2020/12/31 05:06:36;;;;;;;1999.90;999.90;;;4.40;99.90;;;;;;5060312;28;20174;-81
2020/12/31 05:09:15;;;;;;;1999.90;999.90;;;4.30;99.90;;;;;;5060500;28;20174;-81
2020/12/31 05:11:53;;;;;;;1999.90;999.90;;;4.30;99.90;;;;;;5077896;28;20167;-81
2020/12/31 05:14:35;;;;;;;1999.90;999.90;;;4.30;99.90;;;;;;5077979;28;20545;-81
2020/12/31 05:17:15;;;;;;;1999.90;999.90;;;4.20;99.90;;;;;;5077714;28;20202;-81
2020/12/31 05:19:40;;;;;;;1999.90;999.90;;;4.20;99.90;;;;;;5077827;28;20172;-81
2020/12/31 05:22:21;;;;;;;1999.90;999.90;;;4.30;99.90;;;;;;5077792;28;20229;-81
2020/12/31 05:24:51;;;;;;;1999.90;999.90;;;4.30;99.90;;;;;;5060507;28;20733;-81
2020/12/31 05:27:25;;;;;;;1999.90;999.90;;;4.30;99.90;;;;;;5077845;28;20269;-81
2020/12/31 05:30:05;;;;;;;1999.90;999.90;;;4.30;99.90;;;;;;5060596;28;20254;-81
2020/12/31 05:32:36;;;;;;;1999.90;999.90;;;4.20;99.90;;;;;;5077312;28;20186;-80
2020/12/31 05:35:12;;;;;;;1999.90;999.90;;;4.20;99.90;;;;;;5059226;28;20159;-81
2020/12/31 05:37:39;;;;;;;1999.90;999.90;;;4.20;99.90;;;;;;5059516;28;20172;-80
2020/12/31 05:40:07;;;;;;;1999.90;999.90;;;4.10;99.90;;;;;;5076234;28;20167;-80
2020/12/31 05:42:35;;;;;;;1999.90;999.90;;;4.10;99.90;;;;;;5077488;28;20645;-80
2020/12/31 05:45:07;;;;;;;1999.90;999.90;;;4.10;99.90;;;;;;5077066;28;20160;-80
2020/12/31 05:47:34;;;;;;;1999.90;999.90;;;4.10;99.90;;;;;;5059136;28;20175;-80
2020/12/31 05:50:00;;;;;;;1999.90;999.90;;;4.00;99.90;;;;;;5077498;28;20172;-80
2020/12/31 05:52:37;;;;;;;1999.90;999.90;;;4.10;99.90;;;;;;5077133;28;20172;-80
2020/12/31 05:55:08;;;;;;;1999.90;999.90;;;4.10;99.90;;;;;;5077091;28;20227;-81
2020/12/31 05:57:50;;;;;;;1999.90;999.90;;;4.00;99.90;;;;;;5059035;28;20188;-81
2020/12/31 06:00:24;;;;;;;1999.90;999.90;;;4.10;99.90;;;;;;5058687;28;20195;-80
2020/12/31 06:03:00;;;;;;;1999.90;999.90;;;4.10;99.90;;;;;;5076588;28;20180;-80
2020/12/31 06:05:28;;;;;;;1999.90;999.90;;;4.00;99.90;;;;;;5058694;28;20156;-81
2020/12/31 06:07:56;;;;;;;1999.90;999.90;;;3.90;99.90;;;;;;5060172;28;20619;-80
2020/12/31 06:10:32;;;;;;;1999.90;999.90;;;4.00;99.90;;;;;;5076822;28;20159;-80
2020/12/31 06:13:02;;;;;;;1999.90;999.90;;;3.90;99.90;;;;;;5058942;28;20254;-81
2020/12/31 06:15:39;;;;;;;1999.90;999.90;;;3.90;99.90;;;;;;5076841;28;20195;-80
2020/12/31 06:18:06;;;;;;;1999.90;999.90;;;3.90;99.90;;;;;;5077244;28;20270;-81
2020/12/31 06:20:38;;;;;;;1999.90;999.90;;;3.90;99.90;;;;;;5076706;28;20164;-80
2020/12/31 06:23:07;;;;;;;1999.90;999.90;;;3.90;99.90;;;;;;5076696;28;20191;-80
2020/12/31 06:25:34;;;;;;;1999.90;999.90;;;3.90;99.90;;;;;;5058705;28;20175;-80
2020/12/31 06:28:11;;;;;;;1999.90;999.90;;;3.90;99.90;;;;;;5077216;28;20185;-80
2020/12/31 06:30:39;;;;;;;1999.90;999.90;;;3.90;99.90;;;;;;5058972;28;20170;-80
2020/12/31 06:33:24;;;;;;;1999.90;999.90;;;3.80;99.90;;;;;;5077063;28;20631;-80
2020/12/31 06:35:56;;;;;;;1999.90;999.90;;;3.90;99.90;;;;;;5077078;28;20163;-80
2020/12/31 06:38:39;;;;;;;1999.90;999.90;;;3.80;99.90;;;;;;5077197;28;20164;-80
2020/12/31 06:41:26;;;;;;;1999.90;999.90;;;3.90;99.90;;;;;;5076817;28;20704;-80
2020/12/31 06:44:06;;;;;;;1999.90;999.90;;;3.90;99.90;;;;;;5076355;28;20171;-80
2020/12/31 06:46:46;;;;;;;1999.90;999.90;;;3.90;99.90;;;;;;5077311;28;20176;-80
2020/12/31 06:49:12;;;;;;;1999.90;999.90;;;3.80;99.90;;;;;;5059190;28;20210;-82
2020/12/31 06:51:39;;;;;;;1999.90;999.90;;;3.80;99.90;;;;;;5061760;28;20221;-82
2020/12/31 06:54:04;;;;;;;1999.90;999.90;;;3.70;99.90;;;;;;5062468;28;20641;-82
2020/12/31 06:56:48;;;;;;;1999.90;999.90;;;3.70;99.90;;;;;;5080318;28;20277;-82
2020/12/31 06:59:38;;;;;;;1999.90;999.90;;;3.70;99.90;;;;;;5080269;28;20251;-82
2020/12/31 07:02:24;;;;;;;1999.90;999.90;;;3.70;99.90;;;;;;5062260;28;20223;-82
2020/12/31 07:04:50;;;;;;;1999.90;999.90;;;3.70;99.90;;;;;;5079842;28;20172;-82
2020/12/31 07:07:18;;;;;;;1999.90;999.90;;;3.70;99.90;;;;;;5080483;28;20186;-82
2020/12/31 07:09:51;;;;;;;1999.90;999.90;;;3.60;99.90;;;;;;5061944;28;20512;-82
2020/12/31 07:12:30;;;;;;;1999.90;999.90;;;3.60;99.90;;;;;;5080699;28;20160;-82
2020/12/31 07:14:56;;;;;;;1999.90;999.90;;;3.60;99.90;;;;;;5080254;28;20371;-82
2020/12/31 07:17:22;;;;;;;1999.90;999.90;;;3.60;99.90;;;;;;5080701;28;20203;-83
2020/12/31 07:19:48;;;;;;;1999.90;999.90;;;3.60;99.90;;;;;;5080662;28;20171;-82
2020/12/31 07:22:14;;;;;;;1999.90;999.90;;;3.70;99.90;;;;;;5127131;22;20228;-82
2020/12/31 07:25:02;;;;;;;1999.90;999.90;;;3.70;99.90;;;;;;5057985;28;20624;-83
2020/12/31 07:27:33;;;;;;;1999.90;999.90;;;3.60;99.90;;;;;;5058354;28;20215;-83
2020/12/31 07:30:07;;;;;;;1999.90;999.90;;;3.60;99.90;;;;;;5040926;28;20173;-83
2020/12/31 07:33:05;;;;;;;1999.90;999.90;;;3.50;99.90;;;;;;5058390;28;20159;-82
2020/12/31 07:35:37;;;;;;;1999.90;999.90;;;3.60;99.90;;;;;;5040685;28;20179;-83
2020/12/31 07:38:13;;;;;;;1999.90;999.90;;;3.60;99.90;;;;;;5039980;28;20179;-83
2020/12/31 07:40:47;;;;;;;1999.90;999.90;;;3.70;99.90;;;;;;5040125;28;20257;-83
2020/12/31 07:43:26;;;;;;;1999.90;999.90;;;3.70;99.90;;;;;;5057734;28;20602;-82
2020/12/31 07:45:54;;;;;;;1999.90;999.90;;;3.70;99.90;;;;;;5039777;28;20180;-83
2020/12/31 07:48:25;;;;;;;1999.90;999.90;;;3.70;99.90;;;;;;5039149;28;20547;-82
2020/12/31 07:50:56;;;;;;;1999.90;999.90;;;3.60;99.90;;;;;;5040196;28;20175;-83
2020/12/31 07:53:22;;;;;;;1999.90;999.90;;;3.60;99.90;;;;;;5057502;28;20218;-83
2020/12/31 07:55:50;;;;;;;1999.90;999.90;;;3.60;99.90;;;;;;5057569;28;20161;-83
2020/12/31 07:58:23;;;;;;;1999.90;999.90;;;3.60;99.90;;;;;;5039554;28;20252;-83
2020/12/31 08:00:59;;;;;;;1999.90;999.90;;;3.70;99.90;;;;;;5057001;28;20149;-83
2020/12/31 08:03:24;;;;;;;1999.90;999.90;;;3.70;99.90;;;;;;5038664;28;20168;-83
2020/12/31 08:05:57;;;;;;;1999.90;999.90;;;3.60;99.90;;;;;;5039007;28;20581;-83
2020/12/31 08:08:24;;;;;;;1999.90;999.90;;;3.60;99.90;;;;;;5057690;28;20247;-83
2020/12/31 08:10:49;;;;;;;1999.90;999.90;;;3.60;99.90;;;;;;5058331;28;20161;-83
2020/12/31 08:13:18;;;;;;;1999.90;999.90;;;3.60;99.90;;;;;;5057099;28;20180;-84
2020/12/31 08:15:54;;;;;;;1999.90;999.90;;;3.60;99.90;;;;;;5057355;28;20220;-83
2020/12/31 08:18:21;;;;;;;1999.90;999.90;;;3.60;99.90;;;;;;5057411;28;20171;-83
2020/12/31 08:20:50;;;;;;;1999.90;999.90;;;3.60;99.90;;;;;;5038921;28;20654;-83
2020/12/31 08:23:27;;;;;;;1999.90;999.90;;;3.60;99.90;;;;;;5039193;28;20181;-83
2020/12/31 08:25:56;;;;;;;1999.90;999.90;;;3.60;99.90;;;;;;5056827;28;20152;-84
2020/12/31 08:28:22;;;;;;;1999.90;999.90;;;3.70;99.90;;;;;;5038511;28;20167;-83
2020/12/31 08:30:48;;;;;;;1999.90;999.90;;;3.70;99.90;;;;;;5057094;28;20496;-84
2020/12/31 08:33:26;;;;;;;1999.90;999.90;;;3.70;99.90;;;;;;5056992;28;20684;-84
2020/12/31 08:35:52;;;;;;;1999.90;999.90;;;3.70;99.90;;;;;;5039309;28;20230;-84
2020/12/31 08:38:20;;;;;;;1999.90;999.90;;;3.70;99.90;;;;;;5038663;28;20168;-84
2020/12/31 08:40:47;;;;;;;1999.90;999.90;;;3.70;99.90;;;;;;5038864;28;20310;-84
2020/12/31 08:43:36;;;;;;;1999.90;999.90;;;3.70;99.90;;;;;;5056220;28;20200;-84
2020/12/31 08:46:03;;;;;;;1999.90;999.90;;;3.70;99.90;;;;;;5056226;28;20153;-84
2020/12/31 08:48:31;;;;;;;1999.90;999.90;;;3.70;99.90;;;;;;5038765;28;20214;-84
2020/12/31 08:51:08;;;;;;;1999.90;999.90;;;3.70;99.90;;;;;;5039251;28;20615;-84
2020/12/31 08:53:48;;;;;;;1999.90;999.90;;;3.70;99.90;;;;;;5056480;28;20222;-84
2020/12/31 08:56:14;;;;;;;1999.90;999.90;;;3.80;99.90;;;;;;5038592;28;20165;-84
2020/12/31 08:58:40;;;;;;;1999.90;999.90;;;3.90;99.90;;;;;;5056960;28;20175;-84
2020/12/31 09:01:06;;;;;;;1999.90;999.90;;;3.90;99.90;;;;;;5056660;28;20216;-84
2020/12/31 09:03:31;;;;;;;1999.90;999.90;;;3.90;99.90;;;;;;5056281;28;20222;-84
2020/12/31 09:05:59;;;;;;;1999.90;999.90;;;3.90;99.90;;;;;;5056293;28;20161;-84
2020/12/31 09:08:26;;;;;;;1999.90;999.90;;;4.00;99.90;;;;;;5037607;28;20168;-84
2020/12/31 09:11:05;;;;;;;1999.90;999.90;;;4.00;99.90;;;;;;5056558;28;20204;-84
2020/12/31 09:13:36;;;;;;;1999.90;999.90;;;3.90;99.90;;;;;;5055699;28;20172;-84
2020/12/31 09:16:12;;;;;;;1999.90;999.90;;;4.00;99.90;;;;;;5037817;28;20199;-84
2020/12/31 09:18:39;;;;;;;1999.90;999.90;;;3.90;99.90;;;;;;5037976;28;20164;-84
2020/12/31 09:21:06;;;;;;;1999.90;999.90;;;4.00;99.90;;;;;;5056134;28;20243;-85
2020/12/31 09:23:31;;;;;;;1999.90;999.90;;;4.00;99.90;;;;;;5056432;28;20157;-85
2020/12/31 09:25:57;;;;;;;1999.90;999.90;;;3.90;99.90;;;;;;5056158;28;20167;-85
2020/12/31 09:28:26;;;;;;;1999.90;999.90;;;3.90;99.90;;;;;;5056062;28;20395;-85
2020/12/31 09:30:56;;;;;;;1999.90;999.90;;;3.90;99.90;;;;;;5056609;28;20418;-85
2020/12/31 09:33:26;;;;;;;1999.90;999.90;;;3.90;99.90;;;;;;5038210;28;20160;-85
2020/12/31 09:35:54;;;;;;;1999.90;999.90;;;3.90;99.90;;;;;;5038030;28;20203;-85
2020/12/31 09:38:28;;;;;;;1999.90;999.90;;;3.70;99.90;;;;;;5038440;28;20182;-85
2020/12/31 09:40:57;;;;;;;1999.90;999.90;;;3.70;99.90;;;;;;5056547;28;20634;-84
2020/12/31 09:43:26;;;;;;;1999.90;999.90;;;3.80;99.90;;;;;;5038350;28;20168;-85
2020/12/31 09:45:54;;;;;;;1999.90;999.90;;;3.80;99.90;;;;;;5037960;28;20238;-85
2020/12/31 09:48:24;;;;;;;1999.90;999.90;;;3.80;99.90;;;;;;5037705;28;20168;-85
2020/12/31 09:50:52;;;;;;;1999.90;999.90;;;3.90;99.90;;;;;;5038181;28;20255;-84
2020/12/31 09:53:43;;;;;;;;;;;;;;;;;;;;;
2020/12/31 09:57:05;;;;;;;;;;;;;;;;;;;;;
2020/12/31 10:00:15;;;;;;;1999.90;999.90;;;3.70;99.90;;;;;;4955887;29;20164;-84
2020/12/31 10:03:31;;;;;;;;;;;;;;;;;;;;;
2020/12/31 10:06:33;;;;;;;1999.90;999.90;;;3.60;99.90;;;;;;4900233;29;20177;-84
2020/12/31 10:09:42;;;;;;;1999.90;999.90;;;3.50;99.90;;;;;;5023968;28;20164;-84
2020/12/31 10:16:02;;;;;;;1999.90;999.90;;;3.50;99.90;;;;;;4949299;29;20203;-84
2020/12/31 10:25:19;;;;;;;1999.90;999.90;;;3.20;99.90;;;;;;4936701;28;20199;-83
2020/12/31 10:30:59;;;;;;;1999.90;999.90;;;3.20;99.90;;;;;;5057369;28;20206;-83
2020/12/31 10:33:32;;;;;;;1999.90;999.90;;;3.10;99.90;;;;;;5041941;28;20172;-84
2020/12/31 10:36:12;;;;;;;1999.90;999.90;;;3.10;99.90;;;;;;5060406;28;20149;-84
2020/12/31 10:38:41;;;;;;;1999.90;999.90;;;3.00;99.90;;;;;;5059192;28;20159;-83
2020/12/31 10:41:19;;;;;;;1999.90;999.90;;;2.90;99.90;;;;;;5059152;28;20161;-83
2020/12/31 10:43:53;;;;;;;1999.90;999.90;;;2.80;99.90;;;;;;5041898;28;20156;-83
2020/12/31 10:46:30;;;;;;;1999.90;999.90;;;2.80;99.90;;;;;;5059291;28;20200;-82
2020/12/31 10:48:56;;;;;;;1999.90;999.90;;;2.80;99.90;;;;;;5041866;28;20694;-82
2020/12/31 10:51:25;;;;;;;1999.90;999.90;;;2.90;99.90;;;;;;5041623;28;20169;-83
2020/12/31 10:54:03;;;;;;;1999.90;999.90;;;2.90;99.90;;;;;;5041401;28;20172;-82
2020/12/31 10:56:32;;;;;;;1999.90;999.90;;;2.90;99.90;;;;;;5041470;28;20186;-82
2020/12/31 10:58:58;;;;;;;1999.90;999.90;;;3.00;99.90;;;;;;5041526;28;20169;-82
2020/12/31 11:01:24;;;;;;;1999.90;999.90;;;3.00;99.90;;;;;;5058993;28;20269;-82
2020/12/31 11:03:57;;;;;;;1999.90;999.90;;;3.10;99.90;;;;;;5041047;28;20643;-82
2020/12/31 11:06:26;;;;;;;1999.90;999.90;;;3.30;99.90;;;;;;5059660;28;20410;-83
2020/12/31 11:08:56;;;;;;;1999.90;999.90;;;3.40;99.90;;;;;;5040856;28;20168;-83
2020/12/31 11:11:42;;;;;;;1999.90;999.90;;;3.50;99.90;;;;;;5040283;28;20181;-83
2020/12/31 11:14:33;;;;;;;1999.90;999.90;;;3.50;99.90;;;;;;5024711;28;20275;-82
2020/12/31 11:24:10;;;;;;;1999.90;999.90;;;3.90;99.90;;;;;;4941663;28;20224;-83
2020/12/31 11:26:49;;;;;;;;;;;;;;;;;;;;;
2020/12/31 11:29:32;;;;;;;1999.90;999.90;;;4.00;99.90;;;;;;4977794;28;20549;-83
2020/12/31 11:32:02;;;;;;;1999.90;999.90;;;4.20;99.90;;;;;;5015275;28;20222;-82
2020/12/31 11:34:31;;;;;;;1999.90;999.90;;;4.20;99.90;;;;;;5058587;28;20236;-83
2020/12/31 11:37:05;;;;;;;1999.90;999.90;;;4.20;99.90;;;;;;5040616;28;20168;-83
2020/12/31 11:39:33;;;;;;;1999.90;999.90;;;4.20;99.90;;;;;;5040556;28;20160;-83
2020/12/31 11:41:59;;;;;;;1999.90;999.90;;;4.20;99.90;;;;;;5057731;28;20222;-83
2020/12/31 11:44:25;;;;;;;1999.90;999.90;;;4.10;99.90;;;;;;5039976;28;20168;-83
2020/12/31 11:47:00;;;;;;;1999.90;999.90;;;4.00;99.90;;;;;;5058574;28;20427;-82
2020/12/31 11:49:28;;;;;;;1999.90;999.90;;;4.10;99.90;;;;;;5040279;28;20163;-82
2020/12/31 11:52:00;;;;;;;1999.90;999.90;;;4.10;99.90;;;;;;5057685;28;20165;-82
2020/12/31 11:54:26;;;;;;;1999.90;999.90;;;4.10;99.90;;;;;;5058010;28;20164;-83
2020/12/31 11:56:51;;;;;;;1999.90;999.90;;;4.10;99.90;;;;;;5057917;28;20639;-82
2020/12/31 11:59:20;;;;;;;1999.90;999.90;;;4.00;99.90;;;;;;5057792;28;20172;-83
2020/12/31 12:01:52;;;;;;;1999.90;999.90;;;4.10;99.90;;;;;;5039820;28;20689;-82
2020/12/31 12:04:21;;;;;;;1999.90;999.90;;;4.20;99.90;;;;;;5039356;28;20543;-82
2020/12/31 12:06:54;;;;;;;1999.90;999.90;;;4.20;99.90;;;;;;5039434;28;20248;-81
2020/12/31 12:09:22;;;;;;;1999.90;999.90;;;4.10;99.90;;;;;;5039124;28;20520;-81
2020/12/31 12:11:48;;;;;;;1999.90;999.90;;;4.20;99.90;;;;;;5039400;28;20173;-80
2020/12/31 12:14:15;;;;;;;1999.90;999.90;;;4.40;99.90;;;;;;5057335;28;20224;-81
2020/12/31 12:16:41;;;;;;;1999.90;999.90;;;4.60;99.90;;;;;;5057024;28;20505;-82
2020/12/31 12:19:10;;;;;;;1999.90;999.90;;;4.70;99.90;;;;;;5056539;28;20196;-81
2020/12/31 12:21:36;;;;;;;1999.90;999.90;;;4.70;99.90;;;;;;5039107;28;20214;-82
2020/12/31 12:24:06;;;;;;;1999.90;999.90;;;4.60;99.90;;;;;;5057391;28;20214;-82
2020/12/31 12:26:34;;;;;;;1999.90;999.90;;;4.60;99.90;;;;;;5038665;28;20214;-82
2020/12/31 12:28:59;;;;;;;1999.90;999.90;;;4.60;99.90;;;;;;5057203;28;20199;-82
2020/12/31 12:31:33;;;;;;;1999.90;999.90;;;4.70;99.90;;;;;;5057550;28;20169;-82
2020/12/31 12:33:58;;;;;;;1999.90;999.90;;;4.60;99.90;;;;;;5057119;28;20513;-82
2020/12/31 12:36:24;;;;;;;1999.90;999.90;;;4.50;99.90;;;;;;5038622;28;20175;-82
2020/12/31 12:38:50;;;;;;;1999.90;999.90;;;4.40;99.90;;;;;;5056972;28;20175;-82
2020/12/31 12:41:16;;;;;;;1999.90;999.90;;;4.40;99.90;;;;;;5056831;28;20247;-82
2020/12/31 12:43:42;;;;;;;1999.90;999.90;;;4.30;99.90;;;;;;5057142;28;20639;-82
2020/12/31 12:46:08;;;;;;;1999.90;999.90;;;4.30;99.90;;;;;;5038490;28;20165;-82
2020/12/31 12:48:33;;;;;;;1999.90;999.90;;;4.30;99.90;;;;;;5037727;28;20267;-82
2020/12/31 12:50:59;;;;;;;1999.90;999.90;;;4.40;99.90;;;;;;5056168;28;20164;-82